Data for 03/29/2007

Time Sea-Level Adjusted Pressure Absolute Pressure Temperature Relative Humidity Dew Point   
(mb) (inHg) (mb) (inHg) (C) (F) (%) (C) (F)
00:05 1030 30.42 859 25.37 -3.8 25.2 75 -7.6 18.4
00:10 1030 30.42 859 25.37 -4.2 24.5 75 -7.9 17.7
00:15 1030 30.42 859 25.37 -4.1 24.6 74 -8.1 17.5
00:20 1030 30.42 859 25.37 -4.3 24.3 75 -8.1 17.4
00:25 1030 30.42 859 25.37 -4.6 23.8 76 -8.2 17.3
00:30 1030 30.42 859 25.37 -5 22.9 77 -8.4 16.9
00:35 1030 30.42 859 25.37 -5.2 22.6 78 -8.5 16.6
00:40 1030 30.42 859 25.37 -5.2 22.6 77 -8.7 16.4
00:45 1030 30.42 859 25.37 -5.4 22.3 78 -8.7 16.4
00:50 1030 30.42 859 25.37 -5.5 22.2 77 -8.8 16.1
00:55 1030 30.42 859 25.37 -5.4 22.3 77 -8.9 16
01:00 1030 30.42 859 25.37 -5.4 22.2 76 -9.1 15.7
01:05 1029 30.39 859 25.37 -5.2 22.7 74 -9.1 15.7
01:10 1029 30.39 859 25.37 -5.3 22.4 77 -8.8 16.2
01:15 1030 30.42 859 25.37 -5.4 22.2 77 -8.9 16
01:20 1029 30.39 859 25.37 -5.6 21.9 78 -8.9 16
01:25 1029 30.39 859 25.37 -5.6 21.9 76 -9.2 15.4
01:30 1029 30.39 859 25.37 -5.6 22 75 -9.4 15.1
01:35 1029 30.39 859 25.37 -5.7 21.7 76 -9.3 15.2
01:40 1029 30.39 859 25.37 -6.1 21 78 -9.4 15.1
01:45 1029 30.39 859 25.37 -6.1 21 77 -9.5 14.9
01:50 1030 30.42 859 25.37 -6.4 20.4 79 -9.5 14.9
01:55 1030 30.42 859 25.37 -6.6 20.1 80 -9.6 14.8
02:00 1030 30.42 859 25.37 -6.7 19.9 80 -9.6 14.7
02:05 1030 30.42 859 25.37 -6.8 19.8 80 -9.7 14.6
02:10 1030 30.42 859 25.37 -6.7 19.9 81 -9.4 15
02:15 1030 30.42 859 25.37 -6.9 19.5 80 -9.8 14.3
02:20 1030 30.42 859 25.37 -6.5 20.3 75 -10.2 13.7
02:25 1030 30.42 859 25.37 -6 21.2 73 -10.1 13.8
02:30 1030 30.42 859 25.37 -6 21.1 73 -10.1 13.8
02:35 1030 30.42 859 25.37 -6.3 20.7 76 -9.9 14.1
02:40 1030 30.42 859 25.37 -6.5 20.3 72 -10.7 12.7
02:45 1030 30.42 859 25.37 -6.8 19.8 74 -10.7 12.8
02:50 1030 30.42 859 25.37 -6.8 19.8 74 -10.6 12.8
02:55 1030 30.42 859 25.37 -7.2 19 78 -10.4 13.3
03:00 1030 30.42 860 25.4 -7.4 18.7 77 -10.7 12.7
03:05 1031 30.45 860 25.4 -7.5 18.5 81 -10.2 13.7
03:10 1030 30.42 860 25.4 -7.5 18.5 79 -10.5 13.1
03:15 1030 30.42 860 25.4 -7.5 18.6 80 -10.4 13.3
03:20 1030 30.42 860 25.4 -7.5 18.5 79 -10.6 13
03:25 1030 30.42 860 25.4 -7.3 18.9 78 -10.5 13.1
03:30 1030 30.42 860 25.4 -7.4 18.8 78 -10.6 13
03:35 1030 30.42 859 25.37 -7.4 18.8 78 -10.5 13.1
03:40 1030 30.42 859 25.37 -7.2 19.1 76 -10.8 12.6
03:45 1030 30.42 859 25.37 -6.8 19.7 74 -10.8 12.6
03:50 1030 30.42 859 25.37 -6.7 19.9 72 -11.1 12.1
03:55 1030 30.42 859 25.37 -6.7 20 69 -11.5 11.3
04:00 1030 30.42 860 25.4 -6.9 19.6 70 -11.5 11.3
04:05 1030 30.42 860 25.4 -6.6 20.1 69 -11.3 11.6
04:10 1031 30.45 860 25.4 -7.1 19.3 70 -11.6 11.2
04:15 1031 30.45 860 25.4 -7.6 18.3 73 -11.7 11
04:20 1031 30.45 860 25.4 -7.8 17.9 76 -11.4 11.5
04:25 1031 30.45 860 25.4 -7.9 17.7 76 -11.5 11.3
04:30 1031 30.45 860 25.4 -7.7 18.2 75 -11.4 11.6
04:35 1031 30.45 860 25.4 -7.6 18.3 75 -11.3 11.6
04:40 1031 30.45 860 25.4 -7.9 17.7 75 -11.6 11.2
04:45 1031 30.45 860 25.4 -7.8 18 74 -11.7 10.9
04:50 1031 30.45 860 25.4 -7.9 17.8 74 -11.7 10.9
04:55 1031 30.45 860 25.4 -8.1 17.5 74 -11.8 10.7
05:00 1031 30.45 860 25.4 -7.8 18 72 -12 10.4
05:05 1031 30.45 860 25.4 -7.6 18.4 71 -12 10.4
05:10 1031 30.45 860 25.4 -7.6 18.3 71 -11.9 10.5
05:15 1031 30.45 860 25.4 -7.4 18.7 70 -11.9 10.6
05:20 1031 30.45 860 25.4 -7.2 19.1 68 -12.1 10.3
05:25 1031 30.45 860 25.4 -7.2 19.1 68 -12.2 10.1
05:30 1031 30.45 860 25.4 -7.4 18.6 69 -12.2 10
05:35 1031 30.45 860 25.4 -7.4 18.7 68 -12.3 9.8
05:40 1031 30.45 860 25.4 -7.8 18 69 -12.5 9.6
05:45 1031 30.45 860 25.4 -7.9 17.8 70 -12.4 9.7
05:50 1031 30.45 860 25.4 -7.6 18.3 70 -12.1 10.2
05:55 1031 30.45 860 25.4 -7.5 18.5 69 -12.3 9.9
06:00 1031 30.45 860 25.4 -7.7 18.1 69 -12.4 9.7
06:05 1031 30.45 860 25.4 -7.7 18.2 69 -12.4 9.7
06:10 1031 30.45 860 25.4 -7.9 17.9 69 -12.5 9.5
06:15 1031 30.45 861 25.43 -7.7 18.1 68 -12.6 9.3
06:20 1031 30.45 861 25.43 -7.7 18.1 69 -12.5 9.5
06:25 1032 30.47 861 25.43 -7.8 18 69 -12.5 9.4
06:30 1032 30.47 861 25.43 -7.6 18.3 68 -12.6 9.3
06:35 1032 30.47 861 25.43 -7.6 18.4 69 -12.4 9.7
06:40 1032 30.47 861 25.43 -7.7 18.2 67 -12.8 9
06:45 1032 30.47 861 25.43 -8.1 17.5 70 -12.6 9.3
06:50 1032 30.47 861 25.43 -8 17.5 70 -12.5 9.4
06:55 1032 30.47 861 25.43 -8.4 17 73 -12.4 9.7
07:00 1032 30.47 861 25.43 -8.8 16.3 75 -12.4 9.7
07:05 1032 30.47 861 25.43 -8.9 15.9 76 -12.4 9.7
07:10 1032 30.47 861 25.43 -8.9 16 75 -12.5 9.5
07:15 1032 30.47 861 25.43 -9.2 15.5 77 -12.4 9.6
07:20 1032 30.47 861 25.43 -9.1 15.6 75 -12.7 9.1
07:25 1032 30.47 861 25.43 -8.7 16.4 73 -12.7 9.2
07:30 1032 30.47 861 25.43 -8.6 16.6 73 -12.5 9.5
07:35 1032 30.47 861 25.43 -8.5 16.7 73 -12.5 9.4
07:40 1032 30.47 861 25.43 -8.4 16.8 74 -12.3 9.8
07:45 1032 30.47 862 25.45 -8.5 16.6 74 -12.4 9.7
07:50 1032 30.47 862 25.45 -8.7 16.4 75 -12.4 9.7
07:55 1032 30.47 862 25.45 -8.5 16.8 74 -12.3 9.9
08:00 1032 30.47 861 25.43 -8.2 17.2 72 -12.4 9.7
08:05 1032 30.47 862 25.45 -7.8 17.9 71 -12.2 10.1
08:10 1032 30.47 862 25.45 -7.7 18.2 70 -12.2 10.1
08:15 1032 30.47 862 25.45 -7.6 18.3 70 -12.1 10.2
08:20 1032 30.47 861 25.43 -7.6 18.3 70 -12.1 10.2
08:25 1032 30.47 861 25.43 -7.5 18.5 69 -12.3 9.9
08:30 1032 30.47 862 25.45 -7.3 19 67 -12.3 9.8
08:35 1032 30.47 862 25.45 -6.9 19.7 66 -12.1 10.2
08:40 1032 30.47 862 25.45 -6.4 20.4 65 -12 10.4
08:45 1032 30.47 861 25.43 -6.6 20.1 65 -12.2 10.1
08:50 1032 30.47 862 25.45 -6.1 21 63 -12.2 10.1
08:55 1032 30.47 862 25.45 -5.6 21.8 61 -12.1 10.2
09:00 1032 30.47 862 25.45 -5.6 21.9 60 -12.2 10
09:05 1032 30.47 862 25.45 -6 21.2 61 -12.3 9.9
09:10 1033 30.5 862 25.45 -5.9 21.4 60 -12.4 9.7
09:15 1033 30.5 862 25.45 -5.5 22.1 60 -12.1 10.2
09:20 1033 30.5 862 25.45 -5.2 22.6 60 -11.9 10.7
09:25 1032 30.47 862 25.45 -4.8 23.4 59 -11.7 11
09:30 1032 30.47 862 25.45 -5 23 59 -11.8 10.7
09:35 1032 30.47 862 25.45 -4.9 23.3 58 -11.9 10.6
09:40 1032 30.47 862 25.45 -4.8 23.3 57 -12.1 10.2
09:45 1032 30.47 861 25.43 -4.8 23.3 54 -12.7 9.1
09:50 1032 30.47 862 25.45 -4.8 23.3 55 -12.6 9.3
09:55 1032 30.47 862 25.45 -4.7 23.6 55 -12.3 9.8
10:00 1032 30.47 862 25.45 -4.7 23.6 55 -12.4 9.6
10:05 1032 30.47 862 25.45 -4.6 23.7 56 -12.2 10
10:10 1032 30.47 862 25.45 -4.7 23.6 56 -12.2 10
10:15 1032 30.47 862 25.45 -4.7 23.5 56 -12.2 10
10:20 1032 30.47 862 25.45 -4.8 23.4 58 -11.8 10.7
10:25 1032 30.47 862 25.45 -4.5 23.9 58 -11.7 11
10:30 1032 30.47 862 25.45 -4.1 24.6 55 -11.8 10.8
10:35 1032 30.47 862 25.45 -4.3 24.3 55 -11.9 10.5
10:40 1032 30.47 862 25.45 -4 24.9 57 -11.4 11.5
10:45 1032 30.47 862 25.45 -4.2 24.4 56 -11.7 11
10:50 1032 30.47 861 25.43 -4.2 24.4 55 -12 10.4
10:55 1032 30.47 861 25.43 -4 24.8 58 -11.2 11.9
11:00 1032 30.47 861 25.43 -3.7 25.3 52 -12.2 10
11:05 1032 30.47 861 25.43 -3.6 25.5 54 -11.5 11.2
11:10 1032 30.47 861 25.43 -3.2 26.2 50 -12.2 10.1
11:15 1032 30.47 861 25.43 -3.5 25.7 53 -11.7 10.9
11:20 1032 30.47 861 25.43 -2.9 26.8 48 -12.4 9.7
11:25 1032 30.47 861 25.43 -2.7 27.2 49 -11.9 10.5
11:30 1032 30.47 862 25.45 -2.9 26.8 49 -12.1 10.2
11:35 1032 30.47 862 25.45 -3.3 26 49 -12.7 9.2
11:40 1032 30.47 862 25.45 -2.9 26.9 48 -12.4 9.7
11:45 1032 30.47 862 25.45 -2.8 27 48 -12.3 9.9
11:50 1032 30.47 861 25.43 -3 26.7 47 -12.6 9.2
11:55 1032 30.47 861 25.43 -2.9 26.7 47 -12.6 9.3
12:00 1032 30.47 861 25.43 -2.6 27.3 46 -12.7 9.2
12:05 1032 30.47 861 25.43 -3 26.6 48 -12.6 9.3
12:10 1032 30.47 861 25.43 -3.2 26.2 49 -12.6 9.4
12:15 1032 30.47 861 25.43 -3.1 26.4 47 -12.8 8.9
12:20 1032 30.47 861 25.43 -3.2 26.3 48 -12.7 9.1
12:25 1032 30.47 861 25.43 -2.6 27.3 47 -12.5 9.5
12:30 1032 30.47 861 25.43 -2.4 27.8 46 -12.6 9.4
12:35 1032 30.47 861 25.43 -2.9 26.8 47 -12.6 9.4
12:40 1032 30.47 861 25.43 -2.8 27 46 -12.9 8.7
12:45 1032 30.47 861 25.43 -2.4 27.7 46 -12.4 9.6
12:50 1032 30.47 861 25.43 -2.1 28.2 47 -12 10.5
12:55 1032 30.47 861 25.43 -2.5 27.6 46 -12.6 9.4
13:00 1032 30.47 861 25.43 -2.5 27.5 47 -12.3 9.8
13:05 1032 30.47 861 25.43 -2.5 27.6 46 -12.6 9.3
13:10 1032 30.47 861 25.43 -2.5 27.5 47 -12.3 9.9
13:15 1032 30.47 861 25.43 -1.3 29.7 41 -12.9 8.9
13:20 1032 30.47 861 25.43 -1.3 29.7 41 -13 8.6
13:25 1032 30.47 861 25.43 -1.9 28.5 44 -12.5 9.4
13:30 1032 30.47 861 25.43 -0.8 30.5 38 -13.4 7.9
13:35 1032 30.47 861 25.43 -1.7 28.9 45 -12.1 10.2
13:40 1032 30.47 861 25.43 -1.9 28.6 48 -11.6 11.2
13:45 1032 30.47 861 25.43 -2.2 28.1 48 -11.8 10.8
13:50 1032 30.47 861 25.43 -2.3 27.9 48 -11.8 10.8
13:55 1031 30.45 861 25.43 -2.1 28.3 50 -11.1 12
14:00 1031 30.45 861 25.43 -1.8 28.8 46 -11.9 10.6
14:05 1031 30.45 861 25.43 -2 28.4 50 -11.1 12.1
14:10 1031 30.45 860 25.4 -2.1 28.2 50 -11.3 11.7
14:15 1031 30.45 860 25.4 -1.8 28.7 49 -11.1 12
14:20 1031 30.45 860 25.4 -2.1 28.3 51 -10.9 12.3
14:25 1031 30.45 860 25.4 -1.8 28.7 48 -11.5 11.3
14:30 1031 30.45 860 25.4 -1.7 28.9 49 -11 12.1
14:35 1031 30.45 860 25.4 -1.6 29.1 46 -11.7 10.9
14:40 1031 30.45 860 25.4 -1.7 29 48 -11.3 11.7
14:45 1031 30.45 860 25.4 -1.7 29 50 -10.8 12.5
14:50 1031 30.45 860 25.4 -1.9 28.6 46 -12 10.5
14:55 1031 30.45 860 25.4 -1.7 28.9 47 -11.5 11.3
15:00 1031 30.45 860 25.4 -1.6 29.1 48 -11.1 12
15:05 1031 30.45 860 25.4 -1.8 28.8 49 -11 12.1
15:10 1030 30.42 860 25.4 -1.8 28.8 47 -11.6 11.1
15:15 1030 30.42 860 25.4 -1.3 29.6 48 -11 12.3
15:20 1030 30.42 860 25.4 -1.1 30.1 45 -11.5 11.4
15:25 1030 30.42 860 25.4 -0.9 30.4 46 -11.1 12
15:30 1030 30.42 860 25.4 -0.8 30.5 46 -11 12.1
15:35 1030 30.42 860 25.4 -0.8 30.6 42 -12.1 10.2
15:40 1030 30.42 860 25.4 -0.4 31.3 41 -12.1 10.3
15:45 1030 30.42 860 25.4 -0.3 31.4 43 -11.6 11.1
15:50 1030 30.42 859 25.37 -0.3 31.4 41 -12.1 10.2
15:55 1030 30.42 859 25.37 0.3 32.5 40 -11.8 10.7
16:00 1030 30.42 859 25.37 0.3 32.6 39 -11.9 10.5
16:05 1030 30.42 859 25.37 -0.3 31.4 41 -12.1 10.1
16:10 1030 30.42 859 25.37 0.1 32.2 37 -12.9 8.8
16:15 1030 30.42 859 25.37 0.5 32.8 39 -11.9 10.7
16:20 1030 30.42 859 25.37 0.6 33 37 -12.5 9.5
16:25 1030 30.42 859 25.37 -0.3 31.4 41 -12 10.3
16:30 1030 30.42 859 25.37 -0.1 31.8 41 -12 10.5
16:35 1030 30.42 859 25.37 0.1 32.2 39 -12.2 10.1
16:40 1030 30.42 859 25.37 0.1 32.2 39 -12.3 9.9
16:45 1030 30.42 859 25.37 -0.1 31.8 41 -11.8 10.8
16:50 1030 30.42 859 25.37 -0.1 31.9 42 -11.5 11.3
16:55 1030 30.42 859 25.37 0.2 32.3 42 -11.3 11.6
17:00 1030 30.42 859 25.37 0.1 32.2 42 -11.3 11.6
17:05 1030 30.42 859 25.37 0.2 32.4 41 -11.5 11.3
17:10 1030 30.42 859 25.37 0.3 32.5 41 -11.4 11.5
17:15 1030 30.42 859 25.37 -0.3 31.5 44 -11.3 11.7
17:20 1030 30.42 859 25.37 -0.2 31.6 44 -11.2 11.8
17:25 1030 30.42 859 25.37 -0.3 31.5 43 -11.3 11.6
17:30 1030 30.42 859 25.37 -0.3 31.4 43 -11.5 11.3
17:35 1030 30.42 859 25.37 -0.5 31.2 42 -11.8 10.7
17:40 1030 30.42 859 25.37 -0.6 31 44 -11.5 11.3
17:45 1030 30.42 859 25.37 -0.8 30.6 44 -11.7 10.9
17:50 1030 30.42 859 25.37 -0.8 30.5 45 -11.4 11.5
17:55 1029 30.39 859 25.37 -0.4 31.2 44 -11.3 11.7
18:00 1029 30.39 859 25.37 0.2 32.4 42 -11.1 12
18:05 1029 30.39 859 25.37 0.4 32.8 41 -11.4 11.5
18:10 1029 30.39 859 25.37 0.1 32.2 43 -10.9 12.4
18:15 1029 30.39 859 25.37 0.5 32.9 42 -11.1 12
18:20 1029 30.39 859 25.37 0.5 32.8 41 -11.2 11.8
18:25 1029 30.39 859 25.37 0.1 32.2 44 -10.9 12.4
18:30 1029 30.39 859 25.37 -0.1 31.7 45 -10.7 12.7
18:35 1029 30.39 859 25.37 -0.3 31.5 47 -10.2 13.6
18:40 1029 30.39 859 25.37 -0.5 31.2 50 -9.7 14.6
18:45 1029 30.39 859 25.37 -0.7 30.8 53 -9.1 15.6
18:50 1029 30.39 859 25.37 -0.8 30.5 51 -9.7 14.6
18:55 1029 30.39 859 25.37 -0.8 30.5 49 -10.3 13.5
19:00 1029 30.39 859 25.37 -1.2 29.9 50 -10.4 13.4
19:05 1029 30.39 859 25.37 -1.4 29.5 49 -10.7 12.7
19:10 1029 30.39 859 25.37 -1.7 28.9 49 -11.1 12.1
19:15 1029 30.39 859 25.37 -1.8 28.8 50 -10.9 12.3
19:20 1029 30.39 859 25.37 -1.9 28.6 51 -10.6 12.9
19:25 1029 30.39 858 25.34 -2 28.4 52 -10.6 12.9
19:30 1029 30.39 858 25.34 -2.1 28.2 52 -10.8 12.6
19:35 1029 30.39 858 25.34 -2.2 28.1 50 -11.3 11.7
19:40 1029 30.39 858 25.34 -2.1 28.1 51 -10.9 12.4
19:45 1029 30.39 858 25.34 -2.1 28.2 51 -10.9 12.3
19:50 1029 30.39 858 25.34 -2.1 28.2 52 -10.7 12.8
19:55 1029 30.39 858 25.34 -2.2 28.1 53 -10.5 13
20:00 1029 30.39 858 25.34 -2.3 27.9 54 -10.5 13.2
20:05 1029 30.39 858 25.34 -2.4 27.7 55 -10.3 13.4
20:10 1029 30.39 858 25.34 -2.4 27.6 55 -10.2 13.6
20:15 1029 30.39 858 25.34 -2.6 27.4 57 -10 14
20:20 1029 30.39 858 25.34 -2.6 27.3 58 -9.7 14.6
20:25 1029 30.39 858 25.34 -2.5 27.4 59 -9.5 15
20:30 1029 30.39 858 25.34 -2.3 27.9 58 -9.5 14.8
20:35 1029 30.39 858 25.34 -2.2 28 59 -9.2 15.5
20:40 1029 30.39 858 25.34 -2.4 27.6 62 -8.7 16.3
20:45 1029 30.39 858 25.34 -2.7 27.1 65 -8.3 17
20:50 1029 30.39 858 25.34 -2.7 27.1 64 -8.5 16.7
20:55 1029 30.39 858 25.34 -2.5 27.5 62 -8.7 16.3
21:00 1029 30.39 858 25.34 -2.3 27.8 61 -8.8 16.1
21:05 1029 30.39 858 25.34 -2.3 27.9 60 -9 15.8
21:10 1029 30.39 858 25.34 -2.2 28 60 -9 15.8
21:15 1029 30.39 858 25.34 -2.2 28.1 60 -8.9 15.9
21:20 1029 30.39 858 25.34 -2.2 28 63 -8.4 16.9
21:25 1029 30.39 858 25.34 -2.4 27.8 60 -9.1 15.7
21:30 1029 30.39 858 25.34 -2.1 28.1 55 -10.1 13.8
21:35 1029 30.39 858 25.34 -1.9 28.5 54 -10 13.9
21:40 1029 30.39 858 25.34 -1.9 28.6 54 -10.1 13.8
21:45 1029 30.39 858 25.34 -1.9 28.6 54 -10 13.9
21:50 1029 30.39 858 25.34 -1.9 28.7 52 -10.5 13.1
21:55 1029 30.39 858 25.34 -1.8 28.8 52 -10.4 13.2
22:00 1029 30.39 858 25.34 -1.7 29 50 -10.7 12.7
22:05 1029 30.39 858 25.34 -1.7 29 49 -11 12.2
22:10 1029 30.39 858 25.34 -1.6 29.1 50 -10.6 12.8
22:15 1029 30.39 858 25.34 -1.7 28.9 51 -10.5 13
22:20 1028 30.36 858 25.34 -1.8 28.8 52 -10.4 13.2
22:25 1028 30.36 858 25.34 -1.9 28.6 51 -10.7 12.7
22:30 1028 30.36 858 25.34 -1.8 28.7 49 -11.3 11.6
22:35 1028 30.36 857 25.31 -1.7 28.9 51 -10.7 12.7
22:40 1028 30.36 857 25.31 -1.8 28.7 51 -10.6 13
22:45 1028 30.36 857 25.31 -1.8 28.7 52 -10.5 13.2
22:50 1028 30.36 857 25.31 -1.9 28.6 53 -10.3 13.4
22:55 1028 30.36 857 25.31 -1.9 28.6 54 -10.1 13.9
23:00 1028 30.36 857 25.31 -2 28.5 54 -10.1 13.7
23:05 1028 30.36 857 25.31 -1.9 28.5 53 -10.2 13.6
23:10 1028 30.36 857 25.31 -2 28.5 54 -10.1 13.9
23:15 1028 30.36 857 25.31 -2 28.4 54 -10.1 13.8
23:20 1028 30.36 857 25.31 -2 28.5 54 -10 13.9
23:25 1028 30.36 857 25.31 -2 28.4 55 -9.9 14.2
23:30 1028 30.36 857 25.31 -2.1 28.3 56 -9.8 14.4
23:35 1028 30.36 857 25.31 -2.1 28.2 56 -9.7 14.5
23:40 1028 30.36 857 25.31 -2.1 28.2 56 -9.9 14.3
23:45 1028 30.36 857 25.31 -2.1 28.2 57 -9.6 14.8
23:50 1028 30.36 857 25.31 -2.1 28.2 57 -9.5 14.8
23:55 1028 30.36 857 25.31 -2.1 28.3 58 -9.3 15.3
24:00 1028 30.36 857 25.31 -2.1 28.2 59 -9.1 15.6